sensor_id;sensor_type;location;lat;lon;timestamp;pressure;altitude;pressure_sealevel;temperature;humidity
10988;BME280;5547;42.672;23.230;2023-11-19T00:01:16;93159.75;;;0.31;100.00
10988;BME280;5547;42.672;23.230;2023-11-19T00:04:16;93184.00;;;0.48;100.00
10988;BME280;5547;42.672;23.230;2023-11-19T00:07:17;93155.06;;;0.21;100.00
10988;BME280;5547;42.672;23.230;2023-11-19T00:10:17;93181.66;;;0.43;100.00
10988;BME280;5547;42.672;23.230;2023-11-19T00:13:21;93171.22;;;0.43;100.00
10988;BME280;5547;42.672;23.230;2023-11-19T00:16:21;93175.59;;;0.38;100.00
10988;BME280;5547;42.672;23.230;2023-11-19T00:19:22;93175.13;;;0.33;100.00
10988;BME280;5547;42.672;23.230;2023-11-19T00:22:22;93163.72;;;0.25;100.00
10988;BME280;5547;42.672;23.230;2023-11-19T00:25:23;93144.88;;;0.16;100.00
10988;BME280;5547;42.672;23.230;2023-11-19T00:28:24;93176.16;;;0.48;100.00
10988;BME280;5547;42.672;23.230;2023-11-19T00:31:24;93131.38;;;0.14;100.00
10988;BME280;5547;42.672;23.230;2023-11-19T00:34:27;93185.75;;;0.40;100.00
10988;BME280;5547;42.672;23.230;2023-11-19T00:37:28;93113.31;;;-0.11;100.00
10988;BME280;5547;42.672;23.230;2023-11-19T00:40:28;93192.00;;;0.35;100.00
10988;BME280;5547;42.672;23.230;2023-11-19T00:43:29;93138.09;;;-0.05;100.00
10988;BME280;5547;42.672;23.230;2023-11-19T00:46:29;93136.16;;;-0.08;100.00
10988;BME280;5547;42.672;23.230;2023-11-19T00:49:29;93167.31;;;0.17;100.00
10988;BME280;5547;42.672;23.230;2023-11-19T00:52:30;93156.94;;;0.05;100.00
10988;BME280;5547;42.672;23.230;2023-11-19T00:55:30;93181.09;;;0.33;100.00
10988;BME280;5547;42.672;23.230;2023-11-19T00:58:31;93188.53;;;0.31;100.00
10988;BME280;5547;42.672;23.230;2023-11-19T01:01:32;93199.00;;;0.31;100.00
10988;BME280;5547;42.672;23.230;2023-11-19T01:04:35;93169.50;;;0.15;100.00
10988;BME280;5547;42.672;23.230;2023-11-19T01:07:36;93201.63;;;0.31;100.00
10988;BME280;5547;42.672;23.230;2023-11-19T01:10:37;93197.56;;;0.34;100.00
10988;BME280;5547;42.672;23.230;2023-11-19T01:13:37;93150.63;;;0.06;100.00
10988;BME280;5547;42.672;23.230;2023-11-19T01:16:37;93186.00;;;0.35;100.00
10988;BME280;5547;42.672;23.230;2023-11-19T01:19:38;93192.66;;;0.32;100.00
10988;BME280;5547;42.672;23.230;2023-11-19T01:22:39;93194.66;;;0.39;100.00
10988;BME280;5547;42.672;23.230;2023-11-19T01:25:40;93182.66;;;0.18;100.00
10988;BME280;5547;42.672;23.230;2023-11-19T01:28:40;93197.13;;;0.32;100.00
10988;BME280;5547;42.672;23.230;2023-11-19T01:31:46;93197.31;;;0.23;100.00
10988;BME280;5547;42.672;23.230;2023-11-19T01:34:51;93191.38;;;0.07;100.00
10988;BME280;5547;42.672;23.230;2023-11-19T01:37:51;93187.09;;;-0.02;100.00
10988;BME280;5547;42.672;23.230;2023-11-19T01:40:56;93168.38;;;-0.19;100.00
10988;BME280;5547;42.672;23.230;2023-11-19T01:43:57;93211.47;;;0.03;100.00
10988;BME280;5547;42.672;23.230;2023-11-19T01:46:57;93195.44;;;-0.12;100.00
10988;BME280;5547;42.672;23.230;2023-11-19T01:49:58;93214.91;;;0.07;100.00
10988;BME280;5547;42.672;23.230;2023-11-19T01:52:59;93200.06;;;-0.05;100.00
10988;BME280;5547;42.672;23.230;2023-11-19T01:56:00;93134.44;;;-0.51;100.00
10988;BME280;5547;42.672;23.230;2023-11-19T01:59:01;93233.38;;;0.14;100.00
10988;BME280;5547;42.672;23.230;2023-11-19T02:02:02;93235.06;;;0.22;100.00
10988;BME280;5547;42.672;23.230;2023-11-19T02:05:03;93202.75;;;0.14;100.00
10988;BME280;5547;42.672;23.230;2023-11-19T02:08:03;93167.53;;;-0.08;100.00
10988;BME280;5547;42.672;23.230;2023-11-19T02:11:04;93210.16;;;0.28;100.00
10988;BME280;5547;42.672;23.230;2023-11-19T02:14:06;93217.75;;;0.17;100.00
10988;BME280;5547;42.672;23.230;2023-11-19T02:17:07;93206.25;;;0.03;100.00
10988;BME280;5547;42.672;23.230;2023-11-19T02:20:08;93129.38;;;-0.44;100.00
10988;BME280;5547;42.672;23.230;2023-11-19T02:23:13;93120.34;;;-0.47;100.00
10988;BME280;5547;42.672;23.230;2023-11-19T02:29:24;93212.56;;;0.02;100.00
10988;BME280;5547;42.672;23.230;2023-11-19T02:32:27;93164.88;;;-0.43;100.00
10988;BME280;5547;42.672;23.230;2023-11-19T02:35:28;93156.69;;;-0.73;100.00
10988;BME280;5547;42.672;23.230;2023-11-19T02:38:31;93186.34;;;-0.50;100.00
10988;BME280;5547;42.672;23.230;2023-11-19T02:41:31;93190.81;;;-0.50;100.00
10988;BME280;5547;42.672;23.230;2023-11-19T02:44:31;93187.25;;;-0.58;100.00
10988;BME280;5547;42.672;23.230;2023-11-19T02:47:32;93198.81;;;-0.59;100.00
10988;BME280;5547;42.672;23.230;2023-11-19T02:50:33;93203.78;;;-0.54;100.00
10988;BME280;5547;42.672;23.230;2023-11-19T02:53:34;93196.88;;;-0.62;100.00
10988;BME280;5547;42.672;23.230;2023-11-19T02:56:34;93150.44;;;-0.85;100.00
10988;BME280;5547;42.672;23.230;2023-11-19T02:59:38;93151.38;;;-0.61;100.00
10988;BME280;5547;42.672;23.230;2023-11-19T03:02:41;93173.44;;;-0.58;100.00
10988;BME280;5547;42.672;23.230;2023-11-19T03:05:49;93168.22;;;-0.58;100.00
10988;BME280;5547;42.672;23.230;2023-11-19T03:08:49;93190.91;;;-0.47;100.00
10988;BME280;5547;42.672;23.230;2023-11-19T03:11:50;93221.78;;;-0.36;100.00
10988;BME280;5547;42.672;23.230;2023-11-19T03:14:50;93186.19;;;-0.57;100.00
10988;BME280;5547;42.672;23.230;2023-11-19T03:17:51;93145.91;;;-0.88;100.00
10988;BME280;5547;42.672;23.230;2023-11-19T03:20:52;93215.19;;;-0.46;100.00
10988;BME280;5547;42.672;23.230;2023-11-19T03:23:52;93205.81;;;-0.63;100.00
10988;BME280;5547;42.672;23.230;2023-11-19T03:26:52;93216.94;;;-0.50;100.00
10988;BME280;5547;42.672;23.230;2023-11-19T03:29:53;93215.25;;;-0.58;100.00
10988;BME280;5547;42.672;23.230;2023-11-19T03:32:54;93214.09;;;-0.45;100.00
10988;BME280;5547;42.672;23.230;2023-11-19T03:35:56;93206.69;;;-0.43;100.00
10988;BME280;5547;42.672;23.230;2023-11-19T03:38:56;93208.00;;;-0.49;100.00
10988;BME280;5547;42.672;23.230;2023-11-19T03:41:57;93176.91;;;-0.70;100.00
10988;BME280;5547;42.672;23.230;2023-11-19T03:44:57;93219.22;;;-0.49;100.00
10988;BME280;5547;42.672;23.230;2023-11-19T03:47:58;93243.91;;;-0.30;100.00
10988;BME280;5547;42.672;23.230;2023-11-19T03:50:58;93253.28;;;-0.29;100.00
10988;BME280;5547;42.672;23.230;2023-11-19T03:53:58;93260.63;;;-0.19;100.00
10988;BME280;5547;42.672;23.230;2023-11-19T03:56:59;93232.38;;;-0.29;100.00
10988;BME280;5547;42.672;23.230;2023-11-19T04:00:00;93189.22;;;-0.55;100.00
10988;BME280;5547;42.672;23.230;2023-11-19T04:03:06;93194.63;;;-0.48;100.00
10988;BME280;5547;42.672;23.230;2023-11-19T04:06:06;93219.16;;;-0.36;100.00
10988;BME280;5547;42.672;23.230;2023-11-19T04:09:06;93259.88;;;-0.04;100.00
10988;BME280;5547;42.672;23.230;2023-11-19T04:12:07;93276.00;;;-0.02;100.00
10988;BME280;5547;42.672;23.230;2023-11-19T04:15:08;93234.31;;;-0.26;100.00
10988;BME280;5547;42.672;23.230;2023-11-19T04:18:08;93266.44;;;-0.10;100.00
10988;BME280;5547;42.672;23.230;2023-11-19T04:21:09;93291.53;;;0.07;100.00
10988;BME280;5547;42.672;23.230;2023-11-19T04:24:10;93281.81;;;0.08;100.00
10988;BME280;5547;42.672;23.230;2023-11-19T04:27:13;93275.63;;;0.16;100.00
10988;BME280;5547;42.672;23.230;2023-11-19T04:30:14;93288.81;;;0.04;100.00
10988;BME280;5547;42.672;23.230;2023-11-19T04:33:14;93222.34;;;-0.43;100.00
10988;BME280;5547;42.672;23.230;2023-11-19T04:36:18;93259.69;;;-0.27;100.00
10988;BME280;5547;42.672;23.230;2023-11-19T04:39:19;93284.31;;;-0.12;100.00
10988;BME280;5547;42.672;23.230;2023-11-19T04:42:22;93294.97;;;-0.05;100.00
10988;BME280;5547;42.672;23.230;2023-11-19T04:45:22;93282.97;;;-0.06;100.00
10988;BME280;5547;42.672;23.230;2023-11-19T04:48:23;93245.63;;;-0.22;100.00
10988;BME280;5547;42.672;23.230;2023-11-19T04:51:24;93182.13;;;-0.70;100.00
10988;BME280;5547;42.672;23.230;2023-11-19T04:54:24;93182.88;;;-0.70;100.00
10988;BME280;5547;42.672;23.230;2023-11-19T04:57:24;93236.09;;;-0.30;100.00
10988;BME280;5547;42.672;23.230;2023-11-19T05:00:25;93264.19;;;-0.11;100.00
10988;BME280;5547;42.672;23.230;2023-11-19T05:03:26;93257.59;;;-0.21;100.00
10988;BME280;5547;42.672;23.230;2023-11-19T05:06:30;93241.91;;;-0.37;100.00
10988;BME280;5547;42.672;23.230;2023-11-19T05:09:31;93210.84;;;-0.70;100.00
10988;BME280;5547;42.672;23.230;2023-11-19T05:12:31;93293.69;;;-0.11;100.00
10988;BME280;5547;42.672;23.230;2023-11-19T05:15:32;93251.94;;;-0.39;100.00
10988;BME280;5547;42.672;23.230;2023-11-19T05:18:33;93313.09;;;0.04;100.00
10988;BME280;5547;42.672;23.230;2023-11-19T05:21:33;93295.47;;;-0.15;100.00
10988;BME280;5547;42.672;23.230;2023-11-19T05:24:34;93273.44;;;-0.30;100.00
10988;BME280;5547;42.672;23.230;2023-11-19T05:27:36;93306.69;;;0.02;100.00
10988;BME280;5547;42.672;23.230;2023-11-19T05:30:37;93302.28;;;-0.10;100.00
10988;BME280;5547;42.672;23.230;2023-11-19T05:33:37;93302.56;;;-0.15;100.00
10988;BME280;5547;42.672;23.230;2023-11-19T05:36:38;93257.75;;;-0.46;100.00
10988;BME280;5547;42.672;23.230;2023-11-19T05:39:39;93304.84;;;-0.14;100.00
10988;BME280;5547;42.672;23.230;2023-11-19T05:42:43;93296.72;;;-0.25;100.00
10988;BME280;5547;42.672;23.230;2023-11-19T05:45:43;93308.03;;;-0.20;100.00
10988;BME280;5547;42.672;23.230;2023-11-19T05:48:44;93313.47;;;-0.26;100.00
10988;BME280;5547;42.672;23.230;2023-11-19T05:51:46;93194.28;;;-1.06;100.00
10988;BME280;5547;42.672;23.230;2023-11-19T05:54:47;93293.31;;;-0.41;100.00
10988;BME280;5547;42.672;23.230;2023-11-19T05:57:51;93318.81;;;-0.22;100.00
10988;BME280;5547;42.672;23.230;2023-11-19T06:00:52;93323.31;;;-0.07;100.00
10988;BME280;5547;42.672;23.230;2023-11-19T06:03:53;93332.06;;;-0.15;100.00
10988;BME280;5547;42.672;23.230;2023-11-19T06:06:53;93287.38;;;-0.54;100.00
10988;BME280;5547;42.672;23.230;2023-11-19T06:09:55;93309.00;;;-0.41;100.00
10988;BME280;5547;42.672;23.230;2023-11-19T06:12:55;93328.09;;;-0.25;100.00
10988;BME280;5547;42.672;23.230;2023-11-19T06:15:57;93339.00;;;-0.07;100.00
10988;BME280;5547;42.672;23.230;2023-11-19T06:18:57;93331.56;;;-0.05;100.00
10988;BME280;5547;42.672;23.230;2023-11-19T06:21:58;93331.06;;;-0.10;100.00
10988;BME280;5547;42.672;23.230;2023-11-19T06:24:58;93343.78;;;-0.25;100.00
10988;BME280;5547;42.672;23.230;2023-11-19T06:28:00;93292.72;;;-0.50;100.00
10988;BME280;5547;42.672;23.230;2023-11-19T06:31:00;93349.75;;;-0.24;100.00
10988;BME280;5547;42.672;23.230;2023-11-19T06:34:01;93338.63;;;-0.21;100.00
10988;BME280;5547;42.672;23.230;2023-11-19T06:37:01;93340.84;;;-0.23;100.00
10988;BME280;5547;42.672;23.230;2023-11-19T06:40:05;93354.03;;;-0.32;100.00
10988;BME280;5547;42.672;23.230;2023-11-19T06:43:05;93318.28;;;-0.44;100.00
10988;BME280;5547;42.672;23.230;2023-11-19T06:46:15;93322.06;;;-0.41;100.00
10988;BME280;5547;42.672;23.230;2023-11-19T06:49:16;93207.56;;;-1.11;100.00
10988;BME280;5547;42.672;23.230;2023-11-19T06:52:16;93345.66;;;-0.09;100.00
10988;BME280;5547;42.672;23.230;2023-11-19T06:55:17;93348.66;;;-0.07;100.00
10988;BME280;5547;42.672;23.230;2023-11-19T06:58:17;93354.97;;;-0.24;100.00
10988;BME280;5547;42.672;23.230;2023-11-19T07:01:18;93359.53;;;-0.21;100.00
10988;BME280;5547;42.672;23.230;2023-11-19T07:04:19;93354.13;;;-0.28;100.00
10988;BME280;5547;42.672;23.230;2023-11-19T07:07:19;93330.16;;;-0.30;100.00
10988;BME280;5547;42.672;23.230;2023-11-19T07:10:20;93346.81;;;-0.23;100.00
10988;BME280;5547;42.672;23.230;2023-11-19T07:13:20;93361.31;;;-0.25;100.00
10988;BME280;5547;42.672;23.230;2023-11-19T07:16:21;93354.84;;;-0.15;100.00
10988;BME280;5547;42.672;23.230;2023-11-19T07:19:21;93356.94;;;-0.05;100.00
10988;BME280;5547;42.672;23.230;2023-11-19T07:22:22;93358.06;;;0.10;100.00
10988;BME280;5547;42.672;23.230;2023-11-19T07:25:22;93342.75;;;-0.20;100.00
10988;BME280;5547;42.672;23.230;2023-11-19T07:28:23;93359.84;;;0.06;100.00
10988;BME280;5547;42.672;23.230;2023-11-19T07:31:24;93321.88;;;-0.04;100.00
10988;BME280;5547;42.672;23.230;2023-11-19T07:34:25;93364.75;;;0.07;100.00
10988;BME280;5547;42.672;23.230;2023-11-19T07:37:26;93375.63;;;0.25;100.00
10988;BME280;5547;42.672;23.230;2023-11-19T07:40:26;93356.38;;;0.17;100.00
10988;BME280;5547;42.672;23.230;2023-11-19T07:43:26;93378.81;;;0.34;100.00
10988;BME280;5547;42.672;23.230;2023-11-19T07:46:27;93373.34;;;0.24;100.00
10988;BME280;5547;42.672;23.230;2023-11-19T07:49:27;93365.16;;;0.57;100.00
10988;BME280;5547;42.672;23.230;2023-11-19T07:52:28;93359.50;;;0.55;100.00
10988;BME280;5547;42.672;23.230;2023-11-19T07:55:29;93388.88;;;0.48;100.00
10988;BME280;5547;42.672;23.230;2023-11-19T07:58:29;93375.72;;;0.29;100.00
10988;BME280;5547;42.672;23.230;2023-11-19T08:01:30;93369.56;;;0.21;100.00
10988;BME280;5547;42.672;23.230;2023-11-19T08:04:30;93398.31;;;0.53;100.00
10988;BME280;5547;42.672;23.230;2023-11-19T08:07:30;93408.19;;;0.44;100.00
10988;BME280;5547;42.672;23.230;2023-11-19T08:10:31;93348.31;;;-0.22;100.00
10988;BME280;5547;42.672;23.230;2023-11-19T08:13:33;93406.06;;;0.17;100.00
10988;BME280;5547;42.672;23.230;2023-11-19T08:16:33;93434.75;;;0.14;100.00
10988;BME280;5547;42.672;23.230;2023-11-19T08:19:34;93393.28;;;-0.16;100.00
10988;BME280;5547;42.672;23.230;2023-11-19T08:22:34;93409.59;;;-0.07;100.00
10988;BME280;5547;42.672;23.230;2023-11-19T08:25:35;93351.03;;;-0.18;100.00
10988;BME280;5547;42.672;23.230;2023-11-19T08:28:35;93395.66;;;-0.11;100.00
10988;BME280;5547;42.672;23.230;2023-11-19T08:31:35;93414.25;;;0.16;100.00
10988;BME280;5547;42.672;23.230;2023-11-19T08:34:36;93410.19;;;0.18;100.00
10988;BME280;5547;42.672;23.230;2023-11-19T08:37:36;93398.69;;;-0.09;100.00
10988;BME280;5547;42.672;23.230;2023-11-19T08:40:37;93338.50;;;-0.40;100.00
10988;BME280;5547;42.672;23.230;2023-11-19T08:43:38;93434.75;;;0.14;100.00
10988;BME280;5547;42.672;23.230;2023-11-19T08:46:46;93283.16;;;-0.58;100.00
10988;BME280;5547;42.672;23.230;2023-11-19T08:49:47;93419.34;;;0.40;100.00
10988;BME280;5547;42.672;23.230;2023-11-19T08:52:47;93425.03;;;0.74;100.00
10988;BME280;5547;42.672;23.230;2023-11-19T08:55:48;93348.09;;;0.15;100.00
10988;BME280;5547;42.672;23.230;2023-11-19T08:58:49;93353.81;;;-0.11;100.00
10988;BME280;5547;42.672;23.230;2023-11-19T09:01:50;93343.53;;;-0.04;100.00
10988;BME280;5547;42.672;23.230;2023-11-19T09:04:50;93367.44;;;0.43;100.00
10988;BME280;5547;42.672;23.230;2023-11-19T09:07:51;93405.38;;;1.16;100.00
10988;BME280;5547;42.672;23.230;2023-11-19T09:10:51;93376.19;;;0.82;100.00
10988;BME280;5547;42.672;23.230;2023-11-19T09:13:51;93305.38;;;0.59;100.00
10988;BME280;5547;42.672;23.230;2023-11-19T09:16:52;93409.38;;;0.94;100.00
10988;BME280;5547;42.672;23.230;2023-11-19T09:19:52;93409.09;;;0.99;100.00
10988;BME280;5547;42.672;23.230;2023-11-19T09:22:53;93412.84;;;0.66;100.00
10988;BME280;5547;42.672;23.230;2023-11-19T09:25:53;93412.16;;;0.69;100.00
10988;BME280;5547;42.672;23.230;2023-11-19T09:28:54;93266.84;;;-0.39;100.00
10988;BME280;5547;42.672;23.230;2023-11-19T09:31:54;93437.44;;;0.77;100.00
10988;BME280;5547;42.672;23.230;2023-11-19T09:34:55;93372.25;;;0.72;100.00
10988;BME280;5547;42.672;23.230;2023-11-19T09:37:55;93414.03;;;1.20;100.00
10988;BME280;5547;42.672;23.230;2023-11-19T09:40:55;93398.25;;;0.81;100.00
10988;BME280;5547;42.672;23.230;2023-11-19T09:43:57;93390.25;;;1.09;100.00
10988;BME280;5547;42.672;23.230;2023-11-19T09:46:58;93284.25;;;0.68;100.00
10988;BME280;5547;42.672;23.230;2023-11-19T09:49:59;93380.59;;;1.49;100.00
10988;BME280;5547;42.672;23.230;2023-11-19T09:52:59;93291.25;;;0.99;100.00
10988;BME280;5547;42.672;23.230;2023-11-19T09:56:00;93365.13;;;1.43;100.00
10988;BME280;5547;42.672;23.230;2023-11-19T09:59:03;93360.94;;;1.39;100.00
10988;BME280;5547;42.672;23.230;2023-11-19T10:02:03;93220.56;;;0.79;100.00
10988;BME280;5547;42.672;23.230;2023-11-19T10:05:06;93369.03;;;1.34;100.00
10988;BME280;5547;42.672;23.230;2023-11-19T10:08:07;93335.09;;;1.02;100.00
10988;BME280;5547;42.672;23.230;2023-11-19T10:11:11;93152.00;;;-0.16;100.00
10988;BME280;5547;42.672;23.230;2023-11-19T10:14:14;93356.47;;;1.04;100.00
10988;BME280;5547;42.672;23.230;2023-11-19T10:17:14;93355.47;;;1.28;100.00
10988;BME280;5547;42.672;23.230;2023-11-19T10:20:15;93370.56;;;1.35;100.00
10988;BME280;5547;42.672;23.230;2023-11-19T10:23:15;93308.78;;;0.95;100.00
10988;BME280;5547;42.672;23.230;2023-11-19T10:26:16;93367.59;;;1.75;100.00
10988;BME280;5547;42.672;23.230;2023-11-19T10:29:16;93326.97;;;1.65;100.00
10988;BME280;5547;42.672;23.230;2023-11-19T10:32:16;93286.84;;;1.42;100.00
10988;BME280;5547;42.672;23.230;2023-11-19T10:35:17;93267.19;;;1.75;100.00
10988;BME280;5547;42.672;23.230;2023-11-19T10:38:18;93307.88;;;1.45;100.00
10988;BME280;5547;42.672;23.230;2023-11-19T10:41:29;93350.81;;;1.99;100.00
10988;BME280;5547;42.672;23.230;2023-11-19T10:44:33;93362.31;;;1.72;100.00
10988;BME280;5547;42.672;23.230;2023-11-19T10:47:37;93353.31;;;1.34;100.00
10988;BME280;5547;42.672;23.230;2023-11-19T10:50:41;93365.47;;;1.81;100.00
10988;BME280;5547;42.672;23.230;2023-11-19T10:53:43;93377.56;;;2.08;100.00
10988;BME280;5547;42.672;23.230;2023-11-19T10:56:44;93362.28;;;1.91;100.00
10988;BME280;5547;42.672;23.230;2023-11-19T10:59:47;93331.72;;;1.79;100.00
10988;BME280;5547;42.672;23.230;2023-11-19T11:02:50;93253.75;;;1.34;100.00
10988;BME280;5547;42.672;23.230;2023-11-19T11:05:53;93300.03;;;1.68;100.00
10988;BME280;5547;42.672;23.230;2023-11-19T11:08:54;93306.44;;;1.91;100.00
10988;BME280;5547;42.672;23.230;2023-11-19T11:11:55;93288.91;;;1.95;100.00
10988;BME280;5547;42.672;23.230;2023-11-19T11:14:58;93311.81;;;1.98;100.00
10988;BME280;5547;42.672;23.230;2023-11-19T11:18:02;93306.84;;;2.16;100.00
10988;BME280;5547;42.672;23.230;2023-11-19T11:21:07;93277.47;;;2.29;100.00
10988;BME280;5547;42.672;23.230;2023-11-19T11:27:50;93300.91;;;2.68;100.00
10988;BME280;5547;42.672;23.230;2023-11-19T11:37:26;93300.19;;;3.28;100.00
10988;BME280;5547;42.672;23.230;2023-11-19T11:40:30;93278.38;;;2.98;100.00
10988;BME280;5547;42.672;23.230;2023-11-19T11:43:44;93268.59;;;2.68;100.00
10988;BME280;5547;42.672;23.230;2023-11-19T11:46:54;93282.28;;;2.54;100.00
10988;BME280;5547;42.672;23.230;2023-11-19T11:49:55;93268.84;;;2.29;100.00
10988;BME280;5547;42.672;23.230;2023-11-19T11:56:00;93221.13;;;2.23;100.00
10988;BME280;5547;42.672;23.230;2023-11-19T11:59:02;93170.75;;;1.87;100.00
10988;BME280;5547;42.672;23.230;2023-11-19T12:02:03;93260.00;;;2.41;100.00
10988;BME280;5547;42.672;23.230;2023-11-19T12:05:05;93271.25;;;2.68;100.00
10988;BME280;5547;42.672;23.230;2023-11-19T12:08:07;93233.53;;;2.53;100.00
10988;BME280;5547;42.672;23.230;2023-11-19T12:11:10;93264.41;;;2.90;100.00
10988;BME280;5547;42.672;23.230;2023-11-19T12:14:10;93242.50;;;2.79;99.93
10988;BME280;5547;42.672;23.230;2023-11-19T12:17:46;93257.44;;;2.74;99.65
10988;BME280;5547;42.672;23.230;2023-11-19T12:20:49;93232.53;;;2.61;99.62
10988;BME280;5547;42.672;23.230;2023-11-19T12:23:49;93256.13;;;2.88;99.61
10988;BME280;5547;42.672;23.230;2023-11-19T12:26:50;93243.31;;;2.83;100.00
10988;BME280;5547;42.672;23.230;2023-11-19T12:29:52;93243.66;;;2.81;100.00
10988;BME280;5547;42.672;23.230;2023-11-19T12:32:53;93234.59;;;2.75;98.80
10988;BME280;5547;42.672;23.230;2023-11-19T12:35:54;93166.28;;;2.45;100.00
10988;BME280;5547;42.672;23.230;2023-11-19T12:38:55;93215.63;;;2.89;100.00
10988;BME280;5547;42.672;23.230;2023-11-19T12:41:56;93224.69;;;2.95;99.54
10988;BME280;5547;42.672;23.230;2023-11-19T12:44:59;93227.44;;;3.06;100.00
10988;BME280;5547;42.672;23.230;2023-11-19T12:48:07;93213.97;;;2.77;99.34
10988;BME280;5547;42.672;23.230;2023-11-19T12:51:07;93226.47;;;2.87;100.00
10988;BME280;5547;42.672;23.230;2023-11-19T12:54:08;93220.19;;;2.95;100.00
10988;BME280;5547;42.672;23.230;2023-11-19T12:57:08;93221.16;;;2.84;97.86
10988;BME280;5547;42.672;23.230;2023-11-19T13:00:19;93205.91;;;2.63;98.49
10988;BME280;5547;42.672;23.230;2023-11-19T13:03:38;93221.09;;;2.77;98.18
10988;BME280;5547;42.672;23.230;2023-11-19T13:06:47;93156.50;;;2.42;96.95
10988;BME280;5547;42.672;23.230;2023-11-19T13:09:47;93213.25;;;2.80;96.82
10988;BME280;5547;42.672;23.230;2023-11-19T13:13:01;93212.88;;;2.82;95.65
10988;BME280;5547;42.672;23.230;2023-11-19T13:16:05;93225.66;;;2.80;95.46
10988;BME280;5547;42.672;23.230;2023-11-19T13:19:09;93214.41;;;2.83;97.47
10988;BME280;5547;42.672;23.230;2023-11-19T13:22:10;93206.63;;;2.90;96.12
10988;BME280;5547;42.672;23.230;2023-11-19T13:25:10;93123.13;;;2.42;92.72
10988;BME280;5547;42.672;23.230;2023-11-19T13:28:10;93187.88;;;2.91;92.67
10988;BME280;5547;42.672;23.230;2023-11-19T13:31:11;93195.13;;;3.02;91.08
10988;BME280;5547;42.672;23.230;2023-11-19T13:34:12;93198.50;;;3.02;89.04
10988;BME280;5547;42.672;23.230;2023-11-19T13:37:12;93147.13;;;2.71;89.63
10988;BME280;5547;42.672;23.230;2023-11-19T13:40:13;93211.34;;;3.11;89.20
10988;BME280;5547;42.672;23.230;2023-11-19T13:43:15;93137.63;;;2.63;89.14
10988;BME280;5547;42.672;23.230;2023-11-19T13:46:15;93215.97;;;3.21;91.31
10988;BME280;5547;42.672;23.230;2023-11-19T13:49:15;93125.72;;;2.69;90.47
10988;BME280;5547;42.672;23.230;2023-11-19T13:52:16;93164.72;;;3.01;89.39
10988;BME280;5547;42.672;23.230;2023-11-19T13:55:17;93109.03;;;2.54;88.06
10988;BME280;5547;42.672;23.230;2023-11-19T13:58:18;93219.06;;;3.30;90.24
10988;BME280;5547;42.672;23.230;2023-11-19T14:01:18;93216.47;;;3.34;92.35
10988;BME280;5547;42.672;23.230;2023-11-19T14:04:19;93159.69;;;2.88;90.22
10988;BME280;5547;42.672;23.230;2023-11-19T14:07:19;93185.00;;;3.04;88.36
10988;BME280;5547;42.672;23.230;2023-11-19T14:10:19;93238.31;;;3.38;87.66
10988;BME280;5547;42.672;23.230;2023-11-19T14:13:20;93240.00;;;3.23;88.87
10988;BME280;5547;42.672;23.230;2023-11-19T14:16:20;93242.09;;;3.07;90.73
10988;BME280;5547;42.672;23.230;2023-11-19T14:19:21;93202.66;;;2.73;93.05
10988;BME280;5547;42.672;23.230;2023-11-19T14:22:21;93249.63;;;2.78;94.13
10988;BME280;5547;42.672;23.230;2023-11-19T14:25:22;93222.59;;;2.47;94.14
10988;BME280;5547;42.672;23.230;2023-11-19T14:28:23;93246.97;;;2.48;96.14
10988;BME280;5547;42.672;23.230;2023-11-19T14:31:28;93182.94;;;1.99;95.52
10988;BME280;5547;42.672;23.230;2023-11-19T14:34:30;93239.09;;;2.21;96.60
10988;BME280;5547;42.672;23.230;2023-11-19T14:37:30;93238.00;;;2.22;94.95
10988;BME280;5547;42.672;23.230;2023-11-19T14:40:33;93193.00;;;1.97;95.80
10988;BME280;5547;42.672;23.230;2023-11-19T14:43:34;93225.00;;;2.06;98.21
10988;BME280;5547;42.672;23.230;2023-11-19T14:46:34;93216.66;;;2.01;96.98
10988;BME280;5547;42.672;23.230;2023-11-19T14:49:35;93198.78;;;1.83;97.52
10988;BME280;5547;42.672;23.230;2023-11-19T14:52:37;93234.63;;;1.99;98.13
10988;BME280;5547;42.672;23.230;2023-11-19T14:55:37;93214.84;;;1.78;98.78
10988;BME280;5547;42.672;23.230;2023-11-19T14:58:38;93208.00;;;1.74;98.73
10988;BME280;5547;42.672;23.230;2023-11-19T15:01:38;93160.53;;;1.56;96.07
10988;BME280;5547;42.672;23.230;2023-11-19T15:04:40;93228.28;;;1.77;97.61
10988;BME280;5547;42.672;23.230;2023-11-19T15:07:42;93229.66;;;1.71;97.50
10988;BME280;5547;42.672;23.230;2023-11-19T15:10:42;93225.72;;;1.57;100.00
10988;BME280;5547;42.672;23.230;2023-11-19T15:13:44;93243.91;;;1.70;97.61
10988;BME280;5547;42.672;23.230;2023-11-19T15:16:46;93206.78;;;1.44;94.82
10988;BME280;5547;42.672;23.230;2023-11-19T15:19:46;93184.56;;;1.38;92.96
10988;BME280;5547;42.672;23.230;2023-11-19T15:22:47;93247.28;;;1.70;94.61
10988;BME280;5547;42.672;23.230;2023-11-19T15:25:48;93173.69;;;1.36;93.67
10988;BME280;5547;42.672;23.230;2023-11-19T15:28:49;93205.91;;;1.60;93.42
10988;BME280;5547;42.672;23.230;2023-11-19T15:31:50;93227.09;;;1.51;97.20
10988;BME280;5547;42.672;23.230;2023-11-19T15:34:50;93132.91;;;0.73;97.93
10988;BME280;5547;42.672;23.230;2023-11-19T15:37:51;93238.16;;;1.64;97.41
10988;BME280;5547;42.672;23.230;2023-11-19T15:40:51;93172.69;;;1.21;97.58
10988;BME280;5547;42.672;23.230;2023-11-19T15:43:52;93238.00;;;1.53;98.69
10988;BME280;5547;42.672;23.230;2023-11-19T15:46:52;93150.94;;;0.98;97.91
10988;BME280;5547;42.672;23.230;2023-11-19T15:49:53;93227.09;;;1.51;90.98
10988;BME280;5547;42.672;23.230;2023-11-19T15:52:54;93229.59;;;1.44;94.15
10988;BME280;5547;42.672;23.230;2023-11-19T15:55:54;93156.47;;;0.93;93.29
10988;BME280;5547;42.672;23.230;2023-11-19T15:58:55;93139.06;;;0.81;93.88
10988;BME280;5547;42.672;23.230;2023-11-19T16:01:55;93238.75;;;1.54;92.29
10988;BME280;5547;42.672;23.230;2023-11-19T16:04:56;93240.41;;;1.62;91.97
10988;BME280;5547;42.672;23.230;2023-11-19T16:07:57;93171.19;;;1.20;94.01
10988;BME280;5547;42.672;23.230;2023-11-19T16:10:57;93246.53;;;1.70;93.84
10988;BME280;5547;42.672;23.230;2023-11-19T16:13:58;93242.44;;;1.72;94.27
10988;BME280;5547;42.672;23.230;2023-11-19T16:16:58;93177.16;;;1.21;92.94